sensor_id;sensor_type;location;lat;lon;timestamp;P1;durP1;ratioP1;P2;durP2;ratioP2
48987;SDS011;34799;51.440;-2.534;2023-05-10T00:01:17;35.45;;;11.55;;
48987;SDS011;34799;51.440;-2.534;2023-05-10T00:03:45;40.70;;;12.95;;
48987;SDS011;34799;51.440;-2.534;2023-05-10T00:06:13;37.28;;;13.52;;
48987;SDS011;34799;51.440;-2.534;2023-05-10T00:08:41;38.53;;;13.98;;
48987;SDS011;34799;51.440;-2.534;2023-05-10T00:11:08;42.33;;;14.00;;
48987;SDS011;34799;51.440;-2.534;2023-05-10T00:13:35;40.03;;;14.93;;
48987;SDS011;34799;51.440;-2.534;2023-05-10T00:16:02;42.60;;;14.23;;
48987;SDS011;34799;51.440;-2.534;2023-05-10T00:18:29;43.42;;;14.80;;
48987;SDS011;34799;51.440;-2.534;2023-05-10T00:20:56;47.55;;;14.52;;
48987;SDS011;34799;51.440;-2.534;2023-05-10T00:23:23;43.58;;;13.43;;
48987;SDS011;34799;51.440;-2.534;2023-05-10T00:25:51;42.65;;;14.10;;
48987;SDS011;34799;51.440;-2.534;2023-05-10T00:28:19;38.10;;;13.95;;
48987;SDS011;34799;51.440;-2.534;2023-05-10T00:30:46;47.00;;;14.77;;
48987;SDS011;34799;51.440;-2.534;2023-05-10T00:33:13;50.33;;;16.33;;
48987;SDS011;34799;51.440;-2.534;2023-05-10T00:35:41;42.97;;;15.88;;
48987;SDS011;34799;51.440;-2.534;2023-05-10T00:38:08;38.50;;;15.13;;
48987;SDS011;34799;51.440;-2.534;2023-05-10T00:40:35;38.22;;;14.68;;
48987;SDS011;34799;51.440;-2.534;2023-05-10T00:43:08;40.35;;;16.23;;
48987;SDS011;34799;51.440;-2.534;2023-05-10T00:45:35;42.38;;;14.63;;
48987;SDS011;34799;51.440;-2.534;2023-05-10T00:48:03;42.55;;;14.65;;
48987;SDS011;34799;51.440;-2.534;2023-05-10T00:50:31;38.03;;;13.52;;
48987;SDS011;34799;51.440;-2.534;2023-05-10T00:53:01;40.70;;;14.23;;
48987;SDS011;34799;51.440;-2.534;2023-05-10T00:55:28;36.33;;;13.63;;
48987;SDS011;34799;51.440;-2.534;2023-05-10T00:57:57;33.72;;;14.77;;
48987;SDS011;34799;51.440;-2.534;2023-05-10T01:00:24;32.15;;;13.45;;
48987;SDS011;34799;51.440;-2.534;2023-05-10T01:02:53;33.65;;;13.82;;
48987;SDS011;34799;51.440;-2.534;2023-05-10T01:05:21;45.13;;;15.23;;
48987;SDS011;34799;51.440;-2.534;2023-05-10T01:07:49;35.75;;;13.93;;
48987;SDS011;34799;51.440;-2.534;2023-05-10T01:10:16;35.22;;;14.15;;
48987;SDS011;34799;51.440;-2.534;2023-05-10T01:12:44;34.85;;;15.10;;
48987;SDS011;34799;51.440;-2.534;2023-05-10T01:15:14;34.80;;;14.10;;
48987;SDS011;34799;51.440;-2.534;2023-05-10T01:17:44;41.78;;;16.00;;
48987;SDS011;34799;51.440;-2.534;2023-05-10T01:20:13;39.00;;;14.95;;
48987;SDS011;34799;51.440;-2.534;2023-05-10T01:22:45;39.53;;;14.57;;
48987;SDS011;34799;51.440;-2.534;2023-05-10T01:25:20;39.08;;;15.00;;
48987;SDS011;34799;51.440;-2.534;2023-05-10T01:35:45;44.20;;;16.33;;
48987;SDS011;34799;51.440;-2.534;2023-05-10T01:38:48;39.45;;;17.38;;
48987;SDS011;34799;51.440;-2.534;2023-05-10T01:41:55;43.38;;;16.42;;
48987;SDS011;34799;51.440;-2.534;2023-05-10T01:47:20;51.05;;;16.67;;
48987;SDS011;34799;51.440;-2.534;2023-05-10T01:49:57;37.90;;;15.30;;
48987;SDS011;34799;51.440;-2.534;2023-05-10T01:52:32;39.92;;;15.75;;
48987;SDS011;34799;51.440;-2.534;2023-05-10T01:55:06;35.17;;;14.70;;
48987;SDS011;34799;51.440;-2.534;2023-05-10T01:57:38;38.00;;;13.73;;
48987;SDS011;34799;51.440;-2.534;2023-05-10T02:00:07;36.83;;;14.93;;
48987;SDS011;34799;51.440;-2.534;2023-05-10T02:02:46;36.53;;;14.55;;
48987;SDS011;34799;51.440;-2.534;2023-05-10T02:05:16;34.50;;;13.68;;
48987;SDS011;34799;51.440;-2.534;2023-05-10T02:07:44;33.58;;;14.20;;
48987;SDS011;34799;51.440;-2.534;2023-05-10T02:10:12;31.08;;;12.30;;
48987;SDS011;34799;51.440;-2.534;2023-05-10T02:12:43;31.27;;;12.70;;
48987;SDS011;34799;51.440;-2.534;2023-05-10T02:15:15;31.50;;;12.90;;
48987;SDS011;34799;51.440;-2.534;2023-05-10T02:17:47;28.60;;;11.85;;
48987;SDS011;34799;51.440;-2.534;2023-05-10T02:20:15;29.88;;;11.13;;
48987;SDS011;34799;51.440;-2.534;2023-05-10T02:22:47;36.03;;;12.73;;
48987;SDS011;34799;51.440;-2.534;2023-05-10T02:25:17;31.88;;;11.27;;
48987;SDS011;34799;51.440;-2.534;2023-05-10T02:27:48;32.38;;;12.43;;
48987;SDS011;34799;51.440;-2.534;2023-05-10T02:30:16;24.20;;;10.13;;
48987;SDS011;34799;51.440;-2.534;2023-05-10T02:32:45;28.52;;;11.35;;
48987;SDS011;34799;51.440;-2.534;2023-05-10T02:35:13;48.30;;;11.43;;
48987;SDS011;34799;51.440;-2.534;2023-05-10T02:37:43;28.30;;;12.15;;
48987;SDS011;34799;51.440;-2.534;2023-05-10T02:40:12;32.35;;;10.50;;
48987;SDS011;34799;51.440;-2.534;2023-05-10T02:42:41;28.58;;;10.88;;
48987;SDS011;34799;51.440;-2.534;2023-05-10T02:45:12;26.65;;;9.57;;
48987;SDS011;34799;51.440;-2.534;2023-05-10T02:47:43;23.92;;;8.88;;
48987;SDS011;34799;51.440;-2.534;2023-05-10T02:50:13;29.65;;;10.10;;
48987;SDS011;34799;51.440;-2.534;2023-05-10T02:52:42;28.63;;;10.07;;
48987;SDS011;34799;51.440;-2.534;2023-05-10T02:55:14;26.88;;;9.60;;
48987;SDS011;34799;51.440;-2.534;2023-05-10T02:57:46;31.58;;;10.30;;
48987;SDS011;34799;51.440;-2.534;2023-05-10T03:00:18;27.33;;;9.15;;
48987;SDS011;34799;51.440;-2.534;2023-05-10T03:02:45;26.25;;;9.73;;
48987;SDS011;34799;51.440;-2.534;2023-05-10T03:05:12;26.05;;;8.15;;
48987;SDS011;34799;51.440;-2.534;2023-05-10T03:07:39;28.50;;;8.75;;
48987;SDS011;34799;51.440;-2.534;2023-05-10T03:10:07;31.00;;;8.77;;
48987;SDS011;34799;51.440;-2.534;2023-05-10T03:12:41;32.28;;;8.90;;
48987;SDS011;34799;51.440;-2.534;2023-05-10T03:15:40;28.55;;;8.82;;
48987;SDS011;34799;51.440;-2.534;2023-05-10T03:18:28;27.30;;;9.05;;
48987;SDS011;34799;51.440;-2.534;2023-05-10T03:21:07;28.73;;;7.75;;
48987;SDS011;34799;51.440;-2.534;2023-05-10T03:23:48;27.77;;;8.82;;
48987;SDS011;34799;51.440;-2.534;2023-05-10T03:26:25;32.30;;;8.80;;
48987;SDS011;34799;51.440;-2.534;2023-05-10T03:29:05;32.47;;;10.65;;
48987;SDS011;34799;51.440;-2.534;2023-05-10T03:31:34;26.75;;;7.30;;
48987;SDS011;34799;51.440;-2.534;2023-05-10T03:34:01;32.63;;;8.57;;
48987;SDS011;34799;51.440;-2.534;2023-05-10T03:36:28;33.90;;;8.43;;
48987;SDS011;34799;51.440;-2.534;2023-05-10T03:38:55;38.42;;;8.43;;
48987;SDS011;34799;51.440;-2.534;2023-05-10T03:41:24;38.40;;;8.13;;
48987;SDS011;34799;51.440;-2.534;2023-05-10T03:43:53;22.40;;;6.68;;
48987;SDS011;34799;51.440;-2.534;2023-05-10T03:46:20;31.80;;;7.07;;
48987;SDS011;34799;51.440;-2.534;2023-05-10T03:48:47;37.28;;;7.40;;
48987;SDS011;34799;51.440;-2.534;2023-05-10T03:51:14;37.13;;;7.80;;
48987;SDS011;34799;51.440;-2.534;2023-05-10T03:53:41;30.50;;;7.32;;
48987;SDS011;34799;51.440;-2.534;2023-05-10T03:56:08;32.17;;;7.75;;
48987;SDS011;34799;51.440;-2.534;2023-05-10T03:58:35;38.30;;;8.50;;
48987;SDS011;34799;51.440;-2.534;2023-05-10T04:01:02;32.30;;;6.78;;
48987;SDS011;34799;51.440;-2.534;2023-05-10T04:03:31;29.23;;;8.02;;
48987;SDS011;34799;51.440;-2.534;2023-05-10T04:06:02;38.05;;;8.10;;
48987;SDS011;34799;51.440;-2.534;2023-05-10T04:08:29;36.00;;;8.20;;
48987;SDS011;34799;51.440;-2.534;2023-05-10T04:11:10;34.60;;;7.28;;
48987;SDS011;34799;51.440;-2.534;2023-05-10T04:13:38;30.75;;;6.68;;
48987;SDS011;34799;51.440;-2.534;2023-05-10T04:16:05;38.50;;;9.25;;
48987;SDS011;34799;51.440;-2.534;2023-05-10T04:18:33;36.05;;;8.65;;
48987;SDS011;34799;51.440;-2.534;2023-05-10T04:21:00;25.67;;;7.65;;
48987;SDS011;34799;51.440;-2.534;2023-05-10T04:23:27;34.13;;;7.07;;
48987;SDS011;34799;51.440;-2.534;2023-05-10T04:25:59;33.58;;;9.25;;
48987;SDS011;34799;51.440;-2.534;2023-05-10T04:28:27;30.13;;;7.68;;
48987;SDS011;34799;51.440;-2.534;2023-05-10T04:31:00;27.35;;;7.20;;
48987;SDS011;34799;51.440;-2.534;2023-05-10T04:33:28;29.83;;;7.07;;
48987;SDS011;34799;51.440;-2.534;2023-05-10T04:35:55;30.77;;;8.07;;
48987;SDS011;34799;51.440;-2.534;2023-05-10T04:38:22;39.45;;;8.80;;
48987;SDS011;34799;51.440;-2.534;2023-05-10T04:40:49;37.58;;;7.63;;
48987;SDS011;34799;51.440;-2.534;2023-05-10T04:43:18;29.38;;;8.23;;
48987;SDS011;34799;51.440;-2.534;2023-05-10T04:45:46;38.65;;;9.05;;
48987;SDS011;34799;51.440;-2.534;2023-05-10T04:48:13;30.60;;;7.63;;
48987;SDS011;34799;51.440;-2.534;2023-05-10T04:50:40;37.72;;;8.85;;
48987;SDS011;34799;51.440;-2.534;2023-05-10T04:53:07;31.95;;;9.15;;
48987;SDS011;34799;51.440;-2.534;2023-05-10T04:55:34;29.98;;;10.00;;
48987;SDS011;34799;51.440;-2.534;2023-05-10T04:58:00;34.53;;;9.77;;
48987;SDS011;34799;51.440;-2.534;2023-05-10T05:00:29;35.10;;;10.52;;
48987;SDS011;34799;51.440;-2.534;2023-05-10T05:02:57;37.30;;;10.02;;
48987;SDS011;34799;51.440;-2.534;2023-05-10T05:05:25;33.95;;;10.45;;
48987;SDS011;34799;51.440;-2.534;2023-05-10T05:07:52;32.70;;;9.43;;
48987;SDS011;34799;51.440;-2.534;2023-05-10T05:10:19;28.45;;;9.95;;
48987;SDS011;34799;51.440;-2.534;2023-05-10T05:12:46;34.15;;;9.75;;
48987;SDS011;34799;51.440;-2.534;2023-05-10T05:15:13;29.92;;;10.63;;
48987;SDS011;34799;51.440;-2.534;2023-05-10T05:17:43;34.95;;;9.70;;
48987;SDS011;34799;51.440;-2.534;2023-05-10T05:20:12;31.05;;;10.40;;
48987;SDS011;34799;51.440;-2.534;2023-05-10T05:22:39;35.15;;;11.05;;
48987;SDS011;34799;51.440;-2.534;2023-05-10T05:25:06;36.45;;;10.63;;
48987;SDS011;34799;51.440;-2.534;2023-05-10T05:27:34;32.25;;;9.13;;
48987;SDS011;34799;51.440;-2.534;2023-05-10T05:30:00;33.17;;;10.90;;
48987;SDS011;34799;51.440;-2.534;2023-05-10T05:32:29;28.45;;;9.82;;
48987;SDS011;34799;51.440;-2.534;2023-05-10T05:34:56;33.92;;;9.57;;
48987;SDS011;34799;51.440;-2.534;2023-05-10T05:37:25;26.83;;;9.50;;
48987;SDS011;34799;51.440;-2.534;2023-05-10T05:39:52;28.00;;;9.63;;
48987;SDS011;34799;51.440;-2.534;2023-05-10T05:42:21;33.88;;;9.60;;
48987;SDS011;34799;51.440;-2.534;2023-05-10T05:44:48;25.92;;;8.70;;
48987;SDS011;34799;51.440;-2.534;2023-05-10T05:47:15;30.95;;;8.90;;
48987;SDS011;34799;51.440;-2.534;2023-05-10T05:49:42;26.73;;;8.75;;
48987;SDS011;34799;51.440;-2.534;2023-05-10T05:52:13;27.63;;;6.60;;
48987;SDS011;34799;51.440;-2.534;2023-05-10T05:54:40;26.27;;;6.38;;
48987;SDS011;34799;51.440;-2.534;2023-05-10T05:57:07;17.38;;;5.30;;
48987;SDS011;34799;51.440;-2.534;2023-05-10T05:59:34;22.77;;;5.78;;
48987;SDS011;34799;51.440;-2.534;2023-05-10T06:02:01;20.33;;;5.88;;
48987;SDS011;34799;51.440;-2.534;2023-05-10T06:04:28;25.10;;;4.80;;
48987;SDS011;34799;51.440;-2.534;2023-05-10T06:06:55;21.23;;;5.75;;
48987;SDS011;34799;51.440;-2.534;2023-05-10T06:09:22;23.50;;;5.53;;
48987;SDS011;34799;51.440;-2.534;2023-05-10T06:11:52;17.38;;;4.68;;
48987;SDS011;34799;51.440;-2.534;2023-05-10T06:14:22;20.75;;;4.22;;
48987;SDS011;34799;51.440;-2.534;2023-05-10T06:16:49;25.80;;;4.28;;
48987;SDS011;34799;51.440;-2.534;2023-05-10T06:19:16;18.42;;;3.72;;
48987;SDS011;34799;51.440;-2.534;2023-05-10T06:21:43;18.13;;;3.92;;
48987;SDS011;34799;51.440;-2.534;2023-05-10T06:24:10;27.13;;;5.22;;
48987;SDS011;34799;51.440;-2.534;2023-05-10T06:26:39;23.00;;;4.07;;
48987;SDS011;34799;51.440;-2.534;2023-05-10T06:29:06;19.10;;;3.83;;
48987;SDS011;34799;51.440;-2.534;2023-05-10T06:31:33;21.08;;;3.38;;
48987;SDS011;34799;51.440;-2.534;2023-05-10T06:34:00;23.27;;;4.07;;
48987;SDS011;34799;51.440;-2.534;2023-05-10T06:36:27;17.40;;;3.08;;
48987;SDS011;34799;51.440;-2.534;2023-05-10T06:38:54;21.50;;;3.50;;
48987;SDS011;34799;51.440;-2.534;2023-05-10T06:41:21;21.50;;;3.42;;
48987;SDS011;34799;51.440;-2.534;2023-05-10T06:43:50;22.20;;;3.92;;
48987;SDS011;34799;51.440;-2.534;2023-05-10T06:46:18;24.48;;;3.05;;
48987;SDS011;34799;51.440;-2.534;2023-05-10T06:48:45;21.30;;;3.42;;
48987;SDS011;34799;51.440;-2.534;2023-05-10T06:51:13;22.63;;;2.58;;
48987;SDS011;34799;51.440;-2.534;2023-05-10T06:53:40;15.55;;;2.58;;
48987;SDS011;34799;51.440;-2.534;2023-05-10T06:56:06;22.83;;;2.88;;
48987;SDS011;34799;51.440;-2.534;2023-05-10T06:58:34;13.23;;;2.28;;
48987;SDS011;34799;51.440;-2.534;2023-05-10T07:01:01;22.33;;;3.25;;
48987;SDS011;34799;51.440;-2.534;2023-05-10T07:03:33;14.93;;;3.05;;
48987;SDS011;34799;51.440;-2.534;2023-05-10T07:06:03;21.63;;;2.70;;
48987;SDS011;34799;51.440;-2.534;2023-05-10T07:08:31;17.48;;;2.40;;
48987;SDS011;34799;51.440;-2.534;2023-05-10T07:11:03;19.08;;;2.25;;
48987;SDS011;34799;51.440;-2.534;2023-05-10T07:13:31;13.52;;;2.33;;
48987;SDS011;34799;51.440;-2.534;2023-05-10T07:15:59;23.55;;;4.60;;
48987;SDS011;34799;51.440;-2.534;2023-05-10T07:18:28;19.13;;;3.22;;
48987;SDS011;34799;51.440;-2.534;2023-05-10T07:20:56;14.07;;;2.17;;
48987;SDS011;34799;51.440;-2.534;2023-05-10T07:23:23;18.90;;;2.95;;
48987;SDS011;34799;51.440;-2.534;2023-05-10T07:25:51;15.85;;;2.95;;
48987;SDS011;34799;51.440;-2.534;2023-05-10T07:28:18;15.38;;;1.98;;
48987;SDS011;34799;51.440;-2.534;2023-05-10T07:30:45;19.30;;;2.25;;
48987;SDS011;34799;51.440;-2.534;2023-05-10T07:33:13;14.18;;;1.77;;
48987;SDS011;34799;51.440;-2.534;2023-05-10T07:35:42;13.40;;;1.77;;
48987;SDS011;34799;51.440;-2.534;2023-05-10T07:38:09;11.75;;;2.50;;
48987;SDS011;34799;51.440;-2.534;2023-05-10T07:40:39;14.43;;;3.03;;
48987;SDS011;34799;51.440;-2.534;2023-05-10T07:43:06;17.40;;;2.55;;
48987;SDS011;34799;51.440;-2.534;2023-05-10T07:45:33;19.65;;;2.42;;
48987;SDS011;34799;51.440;-2.534;2023-05-10T07:48:02;22.17;;;3.05;;
48987;SDS011;34799;51.440;-2.534;2023-05-10T07:50:29;21.90;;;3.50;;
48987;SDS011;34799;51.440;-2.534;2023-05-10T07:52:56;10.75;;;1.60;;
48987;SDS011;34799;51.440;-2.534;2023-05-10T07:55:23;15.15;;;2.55;;
48987;SDS011;34799;51.440;-2.534;2023-05-10T07:57:51;15.02;;;2.63;;
48987;SDS011;34799;51.440;-2.534;2023-05-10T08:00:18;11.98;;;2.45;;
48987;SDS011;34799;51.440;-2.534;2023-05-10T08:02:46;16.23;;;1.85;;
48987;SDS011;34799;51.440;-2.534;2023-05-10T08:05:15;17.80;;;3.30;;
48987;SDS011;34799;51.440;-2.534;2023-05-10T08:07:43;10.90;;;2.95;;
48987;SDS011;34799;51.440;-2.534;2023-05-10T08:10:10;13.43;;;3.05;;
48987;SDS011;34799;51.440;-2.534;2023-05-10T08:12:37;11.05;;;1.85;;
48987;SDS011;34799;51.440;-2.534;2023-05-10T08:15:05;10.25;;;2.40;;
48987;SDS011;34799;51.440;-2.534;2023-05-10T08:17:33;11.30;;;1.95;;
48987;SDS011;34799;51.440;-2.534;2023-05-10T08:20:01;10.68;;;2.10;;
48987;SDS011;34799;51.440;-2.534;2023-05-10T08:22:29;12.07;;;2.08;;
48987;SDS011;34799;51.440;-2.534;2023-05-10T08:24:57;14.48;;;1.98;;
48987;SDS011;34799;51.440;-2.534;2023-05-10T08:27:24;14.68;;;2.65;;
48987;SDS011;34799;51.440;-2.534;2023-05-10T08:29:51;18.20;;;3.33;;
48987;SDS011;34799;51.440;-2.534;2023-05-10T08:32:18;15.98;;;2.78;;
48987;SDS011;34799;51.440;-2.534;2023-05-10T08:34:45;16.45;;;3.28;;
48987;SDS011;34799;51.440;-2.534;2023-05-10T08:37:12;17.60;;;3.08;;
48987;SDS011;34799;51.440;-2.534;2023-05-10T08:39:39;20.15;;;2.80;;
48987;SDS011;34799;51.440;-2.534;2023-05-10T08:42:09;22.02;;;3.00;;
48987;SDS011;34799;51.440;-2.534;2023-05-10T08:44:36;22.05;;;3.83;;
48987;SDS011;34799;51.440;-2.534;2023-05-10T08:47:06;26.95;;;4.80;;
48987;SDS011;34799;51.440;-2.534;2023-05-10T08:49:36;19.55;;;3.63;;
48987;SDS011;34799;51.440;-2.534;2023-05-10T08:52:04;20.40;;;3.55;;
48987;SDS011;34799;51.440;-2.534;2023-05-10T08:54:33;21.63;;;3.03;;
48987;SDS011;34799;51.440;-2.534;2023-05-10T08:57:01;22.10;;;3.90;;
48987;SDS011;34799;51.440;-2.534;2023-05-10T08:59:28;20.92;;;2.88;;
48987;SDS011;34799;51.440;-2.534;2023-05-10T09:01:58;21.73;;;4.38;;
48987;SDS011;34799;51.440;-2.534;2023-05-10T09:04:27;20.02;;;3.65;;
48987;SDS011;34799;51.440;-2.534;2023-05-10T09:06:55;16.65;;;3.15;;
48987;SDS011;34799;51.440;-2.534;2023-05-10T09:09:23;19.38;;;3.92;;
48987;SDS011;34799;51.440;-2.534;2023-05-10T09:11:53;23.88;;;4.22;;
48987;SDS011;34799;51.440;-2.534;2023-05-10T09:14:21;22.17;;;4.88;;
48987;SDS011;34799;51.440;-2.534;2023-05-10T09:16:50;18.13;;;3.60;;
48987;SDS011;34799;51.440;-2.534;2023-05-10T09:19:20;25.02;;;4.32;;
48987;SDS011;34799;51.440;-2.534;2023-05-10T09:21:47;20.88;;;4.82;;
48987;SDS011;34799;51.440;-2.534;2023-05-10T09:24:15;19.73;;;3.63;;
48987;SDS011;34799;51.440;-2.534;2023-05-10T09:26:45;18.05;;;4.78;;
48987;SDS011;34799;51.440;-2.534;2023-05-10T09:29:15;17.20;;;4.40;;
48987;SDS011;34799;51.440;-2.534;2023-05-10T09:31:51;21.35;;;5.45;;
48987;SDS011;34799;51.440;-2.534;2023-05-10T09:34:29;18.35;;;3.67;;
48987;SDS011;34799;51.440;-2.534;2023-05-10T09:37:01;21.73;;;4.05;;
48987;SDS011;34799;51.440;-2.534;2023-05-10T09:39:34;21.15;;;3.05;;
48987;SDS011;34799;51.440;-2.534;2023-05-10T09:42:04;19.83;;;2.95;;
48987;SDS011;34799;51.440;-2.534;2023-05-10T09:44:35;16.00;;;2.63;;
48987;SDS011;34799;51.440;-2.534;2023-05-10T09:47:04;17.15;;;2.30;;
48987;SDS011;34799;51.440;-2.534;2023-05-10T09:49:31;19.77;;;2.40;;
48987;SDS011;34799;51.440;-2.534;2023-05-10T09:52:03;19.20;;;2.30;;
48987;SDS011;34799;51.440;-2.534;2023-05-10T09:54:32;16.08;;;3.00;;
48987;SDS011;34799;51.440;-2.534;2023-05-10T09:57:01;13.60;;;2.83;;
48987;SDS011;34799;51.440;-2.534;2023-05-10T09:59:28;11.25;;;1.75;;
48987;SDS011;34799;51.440;-2.534;2023-05-10T10:01:56;18.33;;;2.75;;
48987;SDS011;34799;51.440;-2.534;2023-05-10T10:04:24;15.40;;;3.28;;
48987;SDS011;34799;51.440;-2.534;2023-05-10T10:07:02;18.15;;;2.95;;
48987;SDS011;34799;51.440;-2.534;2023-05-10T10:09:31;21.00;;;1.73;;
48987;SDS011;34799;51.440;-2.534;2023-05-10T10:11:59;21.20;;;2.20;;
48987;SDS011;34799;51.440;-2.534;2023-05-10T10:14:27;17.25;;;1.60;;
48987;SDS011;34799;51.440;-2.534;2023-05-10T10:16:57;13.95;;;2.22;;
48987;SDS011;34799;51.440;-2.534;2023-05-10T10:19:30;10.88;;;1.60;;
48987;SDS011;34799;51.440;-2.534;2023-05-10T10:22:02;14.13;;;2.60;;
48987;SDS011;34799;51.440;-2.534;2023-05-10T10:24:29;13.93;;;1.75;;
48987;SDS011;34799;51.440;-2.534;2023-05-10T10:26:57;7.40;;;1.58;;
48987;SDS011;34799;51.440;-2.534;2023-05-10T10:29:36;7.80;;;1.52;;
48987;SDS011;34799;51.440;-2.534;2023-05-10T10:35:09;10.25;;;1.48;;
48987;SDS011;34799;51.440;-2.534;2023-05-10T10:37:46;14.27;;;1.65;;
48987;SDS011;34799;51.440;-2.534;2023-05-10T10:40:29;13.52;;;2.08;;
48987;SDS011;34799;51.440;-2.534;2023-05-10T10:46:11;14.15;;;1.50;;
48987;SDS011;34799;51.440;-2.534;2023-05-10T10:48:50;16.25;;;1.75;;
48987;SDS011;34799;51.440;-2.534;2023-05-10T10:51:38;10.25;;;2.35;;
48987;SDS011;34799;51.440;-2.534;2023-05-10T10:54:09;11.30;;;1.63;;
48987;SDS011;34799;51.440;-2.534;2023-05-10T10:56:37;18.02;;;2.20;;
48987;SDS011;34799;51.440;-2.534;2023-05-10T10:59:04;13.25;;;1.38;;
48987;SDS011;34799;51.440;-2.534;2023-05-10T11:01:34;12.50;;;1.90;;
48987;SDS011;34799;51.440;-2.534;2023-05-10T11:06:31;17.38;;;1.50;;
48987;SDS011;34799;51.440;-2.534;2023-05-10T11:09:05;8.45;;;1.20;;
48987;SDS011;34799;51.440;-2.534;2023-05-10T11:11:36;12.93;;;1.60;;
48987;SDS011;34799;51.440;-2.534;2023-05-10T11:14:19;10.65;;;1.17;;
48987;SDS011;34799;51.440;-2.534;2023-05-10T11:16:49;12.23;;;1.42;;
48987;SDS011;34799;51.440;-2.534;2023-05-10T11:19:17;12.95;;;1.63;;
48987;SDS011;34799;51.440;-2.534;2023-05-10T11:21:47;13.02;;;1.88;;
48987;SDS011;34799;51.440;-2.534;2023-05-10T11:24:16;13.02;;;1.63;;
48987;SDS011;34799;51.440;-2.534;2023-05-10T11:26:48;15.23;;;1.40;;
48987;SDS011;34799;51.440;-2.534;2023-05-10T11:29:16;10.85;;;1.27;;
48987;SDS011;34799;51.440;-2.534;2023-05-10T11:31:43;11.95;;;1.13;;
48987;SDS011;34799;51.440;-2.534;2023-05-10T11:34:13;17.20;;;1.58;;
48987;SDS011;34799;51.440;-2.534;2023-05-10T11:36:51;7.95;;;1.20;;
48987;SDS011;34799;51.440;-2.534;2023-05-10T11:39:20;8.20;;;1.20;;
48987;SDS011;34799;51.440;-2.534;2023-05-10T11:41:48;13.15;;;1.45;;
48987;SDS011;34799;51.440;-2.534;2023-05-10T11:44:17;13.48;;;1.10;;
48987;SDS011;34799;51.440;-2.534;2023-05-10T11:46:45;10.18;;;1.33;;
48987;SDS011;34799;51.440;-2.534;2023-05-10T11:49:12;11.07;;;1.52;;
48987;SDS011;34799;51.440;-2.534;2023-05-10T11:51:39;8.40;;;0.95;;
48987;SDS011;34799;51.440;-2.534;2023-05-10T11:54:09;13.13;;;1.38;;
48987;SDS011;34799;51.440;-2.534;2023-05-10T11:56:39;13.07;;;1.38;;
48987;SDS011;34799;51.440;-2.534;2023-05-10T11:59:07;10.48;;;1.30;;
48987;SDS011;34799;51.440;-2.534;2023-05-10T12:01:34;10.70;;;0.80;;
48987;SDS011;34799;51.440;-2.534;2023-05-10T12:04:02;12.07;;;1.77;;
48987;SDS011;34799;51.440;-2.534;2023-05-10T12:06:30;9.48;;;0.90;;
48987;SDS011;34799;51.440;-2.534;2023-05-10T12:09:01;12.43;;;1.10;;
48987;SDS011;34799;51.440;-2.534;2023-05-10T12:11:37;8.90;;;1.40;;
48987;SDS011;34799;51.440;-2.534;2023-05-10T12:14:07;8.07;;;1.02;;
48987;SDS011;34799;51.440;-2.534;2023-05-10T12:16:35;8.45;;;1.17;;
48987;SDS011;34799;51.440;-2.534;2023-05-10T12:19:03;6.82;;;0.90;;
48987;SDS011;34799;51.440;-2.534;2023-05-10T12:21:32;4.93;;;0.60;;
48987;SDS011;34799;51.440;-2.534;2023-05-10T12:24:01;12.05;;;1.00;;
48987;SDS011;34799;51.440;-2.534;2023-05-10T12:26:29;7.57;;;1.23;;
48987;SDS011;34799;51.440;-2.534;2023-05-10T12:29:14;5.03;;;0.60;;
48987;SDS011;34799;51.440;-2.534;2023-05-10T12:31:50;8.00;;;1.13;;
48987;SDS011;34799;51.440;-2.534;2023-05-10T12:34:26;9.35;;;0.70;;
48987;SDS011;34799;51.440;-2.534;2023-05-10T12:36:58;5.80;;;1.95;;
48987;SDS011;34799;51.440;-2.534;2023-05-10T12:39:25;9.27;;;0.80;;
48987;SDS011;34799;51.440;-2.534;2023-05-10T12:41:52;6.93;;;1.10;;
48987;SDS011;34799;51.440;-2.534;2023-05-10T12:44:19;10.05;;;1.00;;
48987;SDS011;34799;51.440;-2.534;2023-05-10T12:46:48;15.77;;;1.33;;
48987;SDS011;34799;51.440;-2.534;2023-05-10T12:49:15;9.20;;;1.13;;
48987;SDS011;34799;51.440;-2.534;2023-05-10T12:51:43;6.78;;;0.80;;
48987;SDS011;34799;51.440;-2.534;2023-05-10T12:54:10;6.43;;;1.13;;
48987;SDS011;34799;51.440;-2.534;2023-05-10T12:56:37;5.50;;;0.50;;
48987;SDS011;34799;51.440;-2.534;2023-05-10T12:59:04;3.50;;;0.30;;
48987;SDS011;34799;51.440;-2.534;2023-05-10T13:01:31;6.07;;;0.40;;
48987;SDS011;34799;51.440;-2.534;2023-05-10T13:03:58;2.72;;;0.30;;
48987;SDS011;34799;51.440;-2.534;2023-05-10T13:06:27;6.38;;;0.80;;
48987;SDS011;34799;51.440;-2.534;2023-05-10T13:08:55;9.10;;;1.30;;
48987;SDS011;34799;51.440;-2.534;2023-05-10T13:11:22;7.35;;;0.80;;
48987;SDS011;34799;51.440;-2.534;2023-05-10T13:13:49;6.15;;;0.57;;
48987;SDS011;34799;51.440;-2.534;2023-05-10T13:16:16;10.25;;;0.70;;
48987;SDS011;34799;51.440;-2.534;2023-05-10T13:18:43;6.18;;;0.70;;
48987;SDS011;34799;51.440;-2.534;2023-05-10T13:21:10;7.63;;;0.40;;
48987;SDS011;34799;51.440;-2.534;2023-05-10T13:23:37;5.43;;;0.50;;
48987;SDS011;34799;51.440;-2.534;2023-05-10T13:26:04;10.35;;;0.65;;
48987;SDS011;34799;51.440;-2.534;2023-05-10T13:28:31;6.68;;;0.68;;
48987;SDS011;34799;51.440;-2.534;2023-05-10T13:31:00;8.27;;;0.38;;
48987;SDS011;34799;51.440;-2.534;2023-05-10T13:33:27;5.22;;;0.40;;
48987;SDS011;34799;51.440;-2.534;2023-05-10T13:35:54;10.43;;;0.50;;
48987;SDS011;34799;51.440;-2.534;2023-05-10T13:38:21;6.25;;;0.65;;
48987;SDS011;34799;51.440;-2.534;2023-05-10T13:40:48;4.03;;;0.30;;
48987;SDS011;34799;51.440;-2.534;2023-05-10T13:43:18;4.63;;;0.30;;
48987;SDS011;34799;51.440;-2.534;2023-05-10T13:45:47;1.85;;;0.30;;
48987;SDS011;34799;51.440;-2.534;2023-05-10T13:48:14;5.00;;;0.68;;
48987;SDS011;34799;51.440;-2.534;2023-05-10T13:50:42;13.43;;;0.85;;
48987;SDS011;34799;51.440;-2.534;2023-05-10T13:53:09;5.35;;;0.20;;
48987;SDS011;34799;51.440;-2.534;2023-05-10T13:55:36;3.20;;;0.20;;
48987;SDS011;34799;51.440;-2.534;2023-05-10T13:58:03;2.08;;;0.38;;
48987;SDS011;34799;51.440;-2.534;2023-05-10T14:00:30;5.90;;;0.20;;
48987;SDS011;34799;51.440;-2.534;2023-05-10T14:02:58;3.08;;;0.15;;
48987;SDS011;34799;51.440;-2.534;2023-05-10T14:05:25;3.20;;;0.20;;
48987;SDS011;34799;51.440;-2.534;2023-05-10T14:07:53;5.80;;;0.40;;
48987;SDS011;34799;51.440;-2.534;2023-05-10T14:10:21;3.60;;;0.28;;
48987;SDS011;34799;51.440;-2.534;2023-05-10T14:12:48;3.92;;;0.20;;
48987;SDS011;34799;51.440;-2.534;2023-05-10T14:15:15;8.52;;;0.45;;
48987;SDS011;34799;51.440;-2.534;2023-05-10T14:17:43;6.03;;;0.85;;
48987;SDS011;34799;51.440;-2.534;2023-05-10T14:20:10;2.05;;;0.20;;
48987;SDS011;34799;51.440;-2.534;2023-05-10T14:22:37;2.88;;;0.40;;
48987;SDS011;34799;51.440;-2.534;2023-05-10T14:25:04;7.97;;;0.43;;
48987;SDS011;34799;51.440;-2.534;2023-05-10T14:27:34;3.95;;;0.38;;
48987;SDS011;34799;51.440;-2.534;2023-05-10T14:30:01;4.38;;;0.40;;
48987;SDS011;34799;51.440;-2.534;2023-05-10T14:32:28;2.83;;;0.22;;
48987;SDS011;34799;51.440;-2.534;2023-05-10T14:34:55;4.25;;;0.47;;
48987;SDS011;34799;51.440;-2.534;2023-05-10T14:37:22;2.33;;;0.28;;
48987;SDS011;34799;51.440;-2.534;2023-05-10T14:39:49;0.82;;;0.20;;
48987;SDS011;34799;51.440;-2.534;2023-05-10T14:42:16;1.90;;;0.30;;
48987;SDS011;34799;51.440;-2.534;2023-05-10T14:44:43;1.65;;;0.13;;
48987;SDS011;34799;51.440;-2.534;2023-05-10T14:47:10;6.45;;;0.90;;
48987;SDS011;34799;51.440;-2.534;2023-05-10T14:49:39;6.03;;;0.32;;
48987;SDS011;34799;51.440;-2.534;2023-05-10T14:52:07;4.90;;;0.40;;